createdAt,value
2022-08-26T00:01:58.709Z,101229.03
2022-08-26T00:04:02.317Z,101234.13
2022-08-26T00:06:04.263Z,101241.25
2022-08-26T00:08:07.882Z,101238.91
2022-08-26T00:10:09.921Z,101229.72
2022-08-26T00:12:12.087Z,101229.88
2022-08-26T00:14:14.762Z,101219.25
2022-08-26T00:16:16.781Z,101231.63
2022-08-26T00:18:22.366Z,101231.56
2022-08-26T00:20:25.696Z,101234.94
2022-08-26T00:22:28.730Z,101244.13
2022-08-26T00:24:31.924Z,101232.09
2022-08-26T00:26:33.682Z,101235.16
2022-08-26T00:28:35.743Z,101233.25
2022-08-26T00:30:37.959Z,101241.06
2022-08-26T00:32:39.741Z,101239.44
2022-08-26T00:34:45.804Z,101237.59
2022-08-26T00:36:47.615Z,101232.59
2022-08-26T00:38:54.178Z,101246.09
2022-08-26T00:40:57.414Z,101238.84
2022-08-26T00:42:59.382Z,101235.44
2022-08-26T00:45:01.286Z,101242.41
2022-08-26T00:47:04.805Z,101249.06
2022-08-26T00:49:12.112Z,101241.00
2022-08-26T00:51:15.313Z,101241.13
2022-08-26T00:53:17.708Z,101242.59
2022-08-26T00:55:20.559Z,101258.03
2022-08-26T00:57:25.319Z,101250.91
2022-08-26T00:59:28.036Z,101235.75
2022-08-26T01:01:30.697Z,101245.66
2022-08-26T01:03:34.369Z,101247.66
2022-08-26T01:05:36.134Z,101242.63
2022-08-26T01:07:38.262Z,101244.69
2022-08-26T01:09:40.410Z,101242.03
2022-08-26T01:11:43.111Z,101253.63
2022-08-26T01:13:46.639Z,101268.09
2022-08-26T01:15:49.512Z,101246.66
2022-08-26T01:17:52.115Z,101242.09
2022-08-26T01:19:58.814Z,101247.66
2022-08-26T01:22:02.074Z,101246.03
2022-08-26T01:24:05.369Z,101253.06
2022-08-26T01:26:08.347Z,101247.69
2022-08-26T01:28:22.763Z,101250.41
2022-08-26T01:30:24.769Z,101252.19
2022-08-26T01:32:26.528Z,101245.94
2022-08-26T01:34:29.482Z,101238.81
2022-08-26T01:36:31.215Z,101244.97
2022-08-26T01:38:33.194Z,101241.38
2022-08-26T01:40:37.312Z,101242.03
2022-08-26T01:42:40.342Z,101245.75
2022-08-26T01:44:43.325Z,101257.19
2022-08-26T01:46:45.739Z,101255.25
2022-08-26T01:48:48.247Z,101253.56
2022-08-26T01:50:56.264Z,101251.03
2022-08-26T01:52:58.760Z,101243.06
2022-08-26T01:55:00.603Z,101239.47
2022-08-26T01:57:04.320Z,101243.97
2022-08-26T01:59:07.211Z,101239.75
2022-08-26T02:01:11.541Z,101252.22
2022-08-26T02:03:13.740Z,101247.50
2022-08-26T02:05:17.024Z,101255.84
2022-08-26T02:07:19.627Z,101266.66
2022-08-26T02:09:24.027Z,101259.50
2022-08-26T02:11:27.088Z,101258.50
2022-08-26T02:13:30.672Z,101267.53
2022-08-26T02:15:32.488Z,101259.41
2022-08-26T02:17:35.276Z,101257.38
2022-08-26T02:19:37.926Z,101275.41
2022-08-26T02:21:39.752Z,101259.09
2022-08-26T02:23:43.039Z,101266.41
2022-08-26T02:25:48.140Z,101263.63
2022-08-26T02:27:50.236Z,101261.84
2022-08-26T02:29:54.144Z,101269.97
2022-08-26T02:31:55.997Z,101272.13
2022-08-26T02:34:06.533Z,101271.13
2022-08-26T02:36:08.519Z,101272.91
2022-08-26T02:38:11.217Z,101277.59
2022-08-26T02:40:14.002Z,101273.03
2022-08-26T02:42:16.332Z,101271.31
2022-08-26T02:44:18.384Z,101274.84
2022-08-26T02:46:29.783Z,101273.03
2022-08-26T02:48:31.925Z,101275.75
2022-08-26T02:50:33.758Z,101273.13
2022-08-26T02:52:35.677Z,101273.91
2022-08-26T02:54:38.538Z,101276.53
2022-08-26T02:56:40.429Z,101277.66
2022-08-26T02:58:42.624Z,101277.69
2022-08-26T03:00:53.035Z,101277.53
2022-08-26T03:02:56.811Z,101269.50
2022-08-26T03:05:02.296Z,101277.59
2022-08-26T03:07:04.589Z,101283.03
2022-08-26T03:09:06.537Z,101276.81
2022-08-26T03:11:09.478Z,101273.19
2022-08-26T03:13:13.598Z,101273.25
2022-08-26T03:15:17.837Z,101274.03
2022-08-26T03:17:19.949Z,101274.06
2022-08-26T03:19:23.861Z,101274.84
2022-08-26T03:21:25.630Z,101276.63
2022-08-26T03:23:27.409Z,101266.78
2022-08-26T03:25:30.621Z,101263.03
2022-08-26T03:27:32.817Z,101262.19
2022-08-26T03:29:34.638Z,101259.44
2022-08-26T03:31:36.530Z,101269.41
2022-08-26T03:33:38.327Z,101269.41
2022-08-26T03:35:42.777Z,101264.94
2022-08-26T03:37:44.564Z,101265.69
2022-08-26T03:39:46.326Z,101271.19
2022-08-26T03:41:48.231Z,101265.97
2022-08-26T03:43:50.242Z,101263.19
2022-08-26T03:45:52.776Z,101262.31
2022-08-26T03:47:54.523Z,101275.75
2022-08-26T03:49:59.760Z,101264.13
2022-08-26T03:52:03.233Z,101260.56
2022-08-26T03:54:05.911Z,101261.38
2022-08-26T03:56:10.350Z,101265.94
2022-08-26T03:58:12.276Z,101261.41
2022-08-26T04:00:15.318Z,101258.66
2022-08-26T04:02:20.360Z,101271.16
2022-08-26T04:04:22.894Z,101269.28
2022-08-26T04:06:26.589Z,101264.72
2022-08-26T04:08:29.738Z,101264.94
2022-08-26T04:10:31.913Z,101265.84
2022-08-26T04:12:33.727Z,101272.19
2022-08-26T04:14:35.496Z,101269.38
2022-08-26T04:16:39.624Z,101264.84
2022-08-26T04:18:46.534Z,101263.91
2022-08-26T04:20:48.568Z,101267.56
2022-08-26T04:22:50.419Z,101274.72
2022-08-26T04:24:53.599Z,101268.38
2022-08-26T04:26:55.585Z,101273.84
2022-08-26T04:28:57.325Z,101279.28
2022-08-26T04:31:01.220Z,101268.31
2022-08-26T04:33:03.227Z,101269.94
2022-08-26T04:35:14.582Z,101275.59
2022-08-26T04:37:16.308Z,101277.34
2022-08-26T04:39:19.298Z,101272.78
2022-08-26T04:41:23.234Z,101277.47
2022-08-26T04:43:26.812Z,101278.38
2022-08-26T04:45:30.103Z,101284.59
2022-08-26T04:47:32.468Z,101282.94
2022-08-26T04:49:35.134Z,101293.66
2022-08-26T04:51:37.684Z,101289.88
2022-08-26T04:53:41.009Z,101294.53
2022-08-26T04:55:45.080Z,101290.13
2022-08-26T04:57:48.332Z,101295.41
2022-08-26T04:59:50.196Z,101283.47
2022-08-26T05:01:52.677Z,101290.44
2022-08-26T05:03:55.039Z,101285.97
2022-08-26T05:05:57.111Z,101287.00
2022-08-26T05:07:59.282Z,101305.06
2022-08-26T05:10:01.092Z,101300.72
2022-08-26T05:12:03.158Z,101293.44
2022-08-26T05:14:06.482Z,101311.56
2022-08-26T05:16:09.261Z,101301.53
2022-08-26T05:18:14.269Z,101294.84
2022-08-26T05:20:16.162Z,101298.50
2022-08-26T05:22:18.319Z,101300.25
2022-08-26T05:24:20.270Z,101301.06
2022-08-26T05:26:23.313Z,101305.41
2022-08-26T05:28:25.590Z,101303.81
2022-08-26T05:30:28.822Z,101305.69
2022-08-26T05:32:30.589Z,101316.41
2022-08-26T05:34:32.521Z,101315.44
2022-08-26T05:36:35.067Z,101329.97
2022-08-26T05:38:38.005Z,101331.22
2022-08-26T05:40:40.505Z,101322.88
2022-08-26T05:42:42.493Z,101324.81
2022-08-26T05:44:53.710Z,101326.59
2022-08-26T05:46:59.265Z,101333.94
2022-08-26T05:49:04.614Z,101339.47
2022-08-26T05:51:08.432Z,101340.22
2022-08-26T05:53:11.371Z,101343.75
2022-08-26T05:55:14.811Z,101337.47
2022-08-26T05:57:18.506Z,101343.72
2022-08-26T05:59:21.402Z,101338.28
2022-08-26T06:01:27.426Z,101342.91
2022-08-26T06:03:34.689Z,101350.22
2022-08-26T06:05:38.411Z,101347.59
2022-08-26T06:07:41.296Z,101355.56
2022-08-26T06:09:43.519Z,101352.00
2022-08-26T06:11:45.301Z,101353.75
2022-08-26T06:13:47.283Z,101356.53
2022-08-26T06:15:50.905Z,101349.22
2022-08-26T06:17:52.716Z,101349.13
2022-08-26T06:19:55.864Z,101348.06
2022-08-26T06:21:57.602Z,101346.38
2022-08-26T06:24:00.991Z,101342.53
2022-08-26T06:26:05.957Z,101341.97
2022-08-26T06:28:07.811Z,101347.44
2022-08-26T06:30:10.075Z,101340.88
2022-08-26T06:32:12.293Z,101330.19
2022-08-26T06:34:14.309Z,101341.13
2022-08-26T06:36:18.623Z,101345.63
2022-08-26T06:38:20.623Z,101335.69
2022-08-26T06:40:22.702Z,101336.56
2022-08-26T06:42:24.504Z,101333.06
2022-08-26T06:44:26.403Z,101336.22
2022-08-26T06:46:28.419Z,101323.53
2022-08-26T06:48:30.175Z,101322.31
2022-08-26T06:50:32.151Z,101323.19
2022-08-26T06:52:35.292Z,101330.91
2022-08-26T06:54:38.781Z,101331.97
2022-08-26T06:56:41.739Z,101326.81
2022-08-26T06:58:43.910Z,101330.50
2022-08-26T07:00:47.274Z,101333.31
2022-08-26T07:02:49.449Z,101340.50
2022-08-26T07:04:52.973Z,101332.22
2022-08-26T07:06:58.607Z,101334.31
2022-08-26T07:09:04.191Z,101330.13
2022-08-26T07:11:06.875Z,101333.88
2022-08-26T07:13:10.354Z,101329.78
2022-08-26T07:15:14.936Z,101323.75
2022-08-26T07:17:16.851Z,101326.28
2022-08-26T07:19:30.876Z,101320.66
2022-08-26T07:21:33.704Z,101326.75
2022-08-26T07:23:35.920Z,101334.16
2022-08-26T07:25:39.657Z,101327.84
2022-08-26T07:27:41.445Z,101322.44
2022-08-26T07:29:43.559Z,101321.16
2022-08-26T07:31:45.653Z,101317.63
2022-08-26T07:33:47.451Z,101326.38
2022-08-26T07:35:49.494Z,101325.69
2022-08-26T07:37:56.405Z,101324.16
2022-08-26T07:39:58.956Z,101330.53
2022-08-26T07:42:02.610Z,101320.91
2022-08-26T07:44:09.680Z,101334.59
2022-08-26T07:46:16.288Z,101322.47
2022-08-26T07:48:18.385Z,101329.91
2022-08-26T07:50:48.992Z,101332.41
2022-08-26T07:52:45.158Z,101321.03
2022-08-26T07:54:47.172Z,101319.94
2022-08-26T07:56:49.102Z,101332.66
2022-08-26T07:58:52.538Z,101343.84
2022-08-26T08:00:54.667Z,101327.13
2022-08-26T08:02:56.612Z,101325.22
2022-08-26T08:04:58.994Z,101330.72
2022-08-26T08:07:00.921Z,101314.13
2022-08-26T08:09:03.030Z,101319.19
2022-08-26T08:11:06.365Z,101328.94
2022-08-26T08:13:08.407Z,101316.44
2022-08-26T08:15:13.498Z,101326.88
2022-08-26T08:17:15.711Z,101329.31
2022-08-26T08:19:17.603Z,101326.91
2022-08-26T08:21:21.124Z,101325.03
2022-08-26T08:23:24.019Z,101325.72
2022-08-26T08:25:26.057Z,101329.00
2022-08-26T08:27:27.989Z,101322.84
2022-08-26T08:29:29.743Z,101323.47
2022-08-26T08:31:55.995Z,101324.50
2022-08-26T08:33:55.300Z,101319.72
2022-08-26T08:35:57.051Z,101339.63
2022-08-26T08:37:58.800Z,101334.84
2022-08-26T08:40:00.637Z,101333.81
2022-08-26T08:42:23.586Z,101330.03
2022-08-26T08:46:33.892Z,101325.31
2022-08-26T08:48:36.915Z,101317.97
2022-08-26T08:50:39.932Z,101325.59
2022-08-26T08:52:43.878Z,101330.66
2022-08-26T08:54:47.511Z,101323.66
2022-08-26T08:56:50.472Z,101329.13
2022-08-26T08:58:56.916Z,101322.88
2022-08-26T09:01:00.437Z,101326.97
2022-08-26T09:03:07.528Z,101316.91
2022-08-26T09:05:15.541Z,101313.09
2022-08-26T09:07:18.154Z,101321.94
2022-08-26T09:09:21.336Z,101313.97
2022-08-26T09:11:23.654Z,101321.47
2022-08-26T09:13:27.167Z,101320.75
2022-08-26T09:15:31.352Z,101313.53
2022-08-26T09:17:37.520Z,101319.25
2022-08-26T09:19:41.478Z,101323.63
2022-08-26T09:21:43.500Z,101318.97
2022-08-26T09:23:49.267Z,101323.03
2022-08-26T09:25:52.432Z,101312.47
2022-08-26T09:27:55.993Z,101318.56
2022-08-26T09:29:58.582Z,101319.59
2022-08-26T09:32:13.309Z,101309.84
2022-08-26T09:34:17.300Z,101312.50
2022-08-26T09:36:35.391Z,101319.00
2022-08-26T09:38:41.530Z,101312.50
2022-08-26T09:40:43.997Z,101315.19
2022-08-26T09:42:45.781Z,101306.88
2022-08-26T09:44:53.568Z,101311.03
2022-08-26T09:46:57.045Z,101315.28
2022-08-26T09:49:03.837Z,101311.94
2022-08-26T09:51:07.711Z,101309.75
2022-08-26T09:53:15.238Z,101315.25
2022-08-26T09:55:20.862Z,101317.00
2022-08-26T09:57:25.313Z,101318.97
2022-08-26T09:59:28.869Z,101310.75
2022-08-26T10:01:32.903Z,101306.13
2022-08-26T10:03:35.465Z,101306.66
2022-08-26T10:05:39.395Z,101311.94
2022-08-26T10:07:45.199Z,101313.22
2022-08-26T10:09:48.523Z,101307.00
2022-08-26T10:11:54.051Z,101301.63
2022-08-26T10:13:58.115Z,101308.84
2022-08-26T10:16:01.971Z,101296.91
2022-08-26T10:18:04.640Z,101301.88
2022-08-26T10:20:22.483Z,101293.38
2022-08-26T10:22:26.435Z,101304.81
2022-08-26T10:24:30.125Z,101299.88
2022-08-26T10:26:35.203Z,101303.72
2022-08-26T10:28:38.457Z,101302.25
2022-08-26T10:30:41.030Z,101293.47
2022-08-26T10:32:45.575Z,101298.38
2022-08-26T10:34:47.362Z,101298.47
2022-08-26T10:37:14.292Z,101298.53
2022-08-26T10:39:26.661Z,101297.38
2022-08-26T10:41:31.644Z,101295.13
2022-08-26T10:43:36.120Z,101286.56
2022-08-26T10:45:43.697Z,101293.78
2022-08-26T10:47:45.902Z,101285.41
2022-08-26T10:49:47.708Z,101287.75
2022-08-26T10:51:53.392Z,101281.34
2022-08-26T10:53:56.910Z,101291.91
2022-08-26T10:56:00.026Z,101282.38
2022-08-26T10:58:07.275Z,101286.13
2022-08-26T11:00:13.447Z,101291.88
2022-08-26T11:02:22.789Z,101288.75
2022-08-26T11:04:48.176Z,101278.09
2022-08-26T11:06:51.469Z,101278.41
2022-08-26T11:08:54.077Z,101281.31
2022-08-26T11:10:59.093Z,101275.63
2022-08-26T11:13:01.451Z,101274.50
2022-08-26T11:15:05.228Z,101279.69
2022-08-26T11:17:09.507Z,101273.97
2022-08-26T11:19:12.105Z,101274.69
2022-08-26T11:21:47.698Z,101281.41
2022-08-26T11:23:52.932Z,101272.66
2022-08-26T11:26:13.037Z,101263.34
2022-08-26T11:28:32.507Z,101267.44
2022-08-26T11:30:44.307Z,101269.41
2022-08-26T11:32:49.822Z,101269.69
2022-08-26T11:34:53.933Z,101269.31
2022-08-26T11:36:56.698Z,101275.69
2022-08-26T11:38:58.733Z,101257.50
2022-08-26T11:41:05.221Z,101248.78
2022-08-26T11:43:11.585Z,101251.34
2022-08-26T11:45:17.442Z,101251.81
2022-08-26T11:47:28.789Z,101249.94
2022-08-26T11:49:32.730Z,101246.47
2022-08-26T11:51:39.694Z,101244.75
2022-08-26T11:53:43.308Z,101241.78
2022-08-26T11:55:45.125Z,101241.41
2022-08-26T11:57:49.703Z,101245.44
2022-08-26T11:59:52.304Z,101247.34
2022-08-26T12:01:54.027Z,101243.00
2022-08-26T12:03:55.832Z,101243.88
2022-08-26T12:06:01.607Z,101247.41
2022-08-26T12:08:06.343Z,101244.19
2022-08-26T12:10:08.603Z,101229.31
2022-08-26T12:12:12.170Z,101236.50
2022-08-26T12:14:16.681Z,101233.25
2022-08-26T12:16:18.616Z,101229.72
2022-08-26T12:18:29.206Z,101231.31
2022-08-26T12:20:32.515Z,101223.94
2022-08-26T12:22:35.767Z,101211.88
2022-08-26T12:24:42.138Z,101211.50
2022-08-26T12:26:44.693Z,101210.91
2022-08-26T12:28:47.511Z,101208.66
2022-08-26T12:30:59.291Z,101209.13
2022-08-26T12:33:22.195Z,101202.81
2022-08-26T12:35:24.916Z,101196.31
2022-08-26T12:37:26.696Z,101191.13
2022-08-26T12:39:30.708Z,101190.94
2022-08-26T12:41:38.704Z,101192.00
2022-08-26T12:43:41.977Z,101199.38
2022-08-26T12:45:45.042Z,101190.88
2022-08-26T12:47:46.931Z,101196.25
2022-08-26T12:49:48.967Z,101186.47
2022-08-26T12:51:50.873Z,101190.00
2022-08-26T12:53:52.839Z,101188.66
2022-08-26T12:55:56.890Z,101192.50
2022-08-26T12:58:12.167Z,101186.78
2022-08-26T13:00:30.076Z,101182.56
2022-08-26T13:02:34.846Z,101180.38
2022-08-26T13:04:37.980Z,101184.66
2022-08-26T13:06:39.824Z,101182.84
2022-08-26T13:08:41.951Z,101183.09
2022-08-26T13:10:45.408Z,101186.16
2022-08-26T13:12:48.601Z,101181.06
2022-08-26T13:14:50.908Z,101179.06
2022-08-26T13:16:52.833Z,101176.47
2022-08-26T13:18:55.681Z,101170.66
2022-08-26T13:20:57.478Z,101171.72
2022-08-26T13:22:59.490Z,101157.31
2022-08-26T13:25:01.370Z,101156.53
2022-08-26T13:27:03.515Z,101152.69
2022-08-26T13:29:10.161Z,101151.44
2022-08-26T13:31:12.359Z,101143.97
2022-08-26T13:33:14.678Z,101140.63
2022-08-26T13:35:16.253Z,101136.81
2022-08-26T13:37:17.860Z,101135.72
2022-08-26T13:39:19.578Z,101134.22
2022-08-26T13:41:28.907Z,101120.59
2022-08-26T13:43:31.598Z,101123.00
2022-08-26T13:45:34.711Z,101109.22
2022-08-26T13:47:36.406Z,101132.34
2022-08-26T13:49:37.956Z,101129.38
2022-08-26T13:51:39.635Z,101134.25
2022-08-26T13:53:41.618Z,101125.88
2022-08-26T13:55:43.676Z,101118.72
2022-08-26T13:57:45.219Z,101122.38
2022-08-26T13:59:56.003Z,101124.78
2022-08-26T14:01:59.882Z,101122.69
2022-08-26T14:04:02.189Z,101115.97
2022-08-26T14:06:04.263Z,101114.31
2022-08-26T14:08:06.448Z,101113.22
2022-08-26T14:10:08.686Z,101117.25
2022-08-26T14:12:10.789Z,101112.72
2022-08-26T14:14:12.849Z,101123.22
2022-08-26T14:16:15.247Z,101123.28
2022-08-26T14:18:18.504Z,101122.63
2022-08-26T14:20:38.563Z,101113.44
2022-08-26T14:23:12.962Z,101112.66
2022-08-26T14:25:33.697Z,101110.06
2022-08-26T14:27:53.855Z,101120.72
2022-08-26T14:30:13.779Z,101115.38
2022-08-26T14:32:35.485Z,101104.00
2022-08-26T14:34:57.261Z,101103.25
2022-08-26T14:37:17.634Z,101109.03
2022-08-26T14:39:37.975Z,101095.16
2022-08-26T14:41:58.310Z,101102.06
2022-08-26T14:44:18.815Z,101096.88
2022-08-26T14:46:39.981Z,101103.50
2022-08-26T14:49:01.553Z,101089.97
2022-08-26T14:51:23.855Z,101089.34
2022-08-26T14:53:44.464Z,101089.69
2022-08-26T14:56:05.154Z,101085.16
2022-08-26T14:58:25.883Z,101083.38
2022-08-26T15:00:53.795Z,101088.66
2022-08-26T15:05:34.086Z,101090.44
2022-08-26T15:07:55.810Z,101098.50
2022-08-26T15:10:16.291Z,101094.81
2022-08-26T15:12:36.373Z,101099.41
2022-08-26T15:14:56.735Z,101083.09
2022-08-26T15:17:17.174Z,101085.34
2022-08-26T15:19:37.181Z,101086.31
2022-08-26T15:21:57.709Z,101079.44
2022-08-26T15:24:20.192Z,101083.56
2022-08-26T15:26:40.257Z,101082.88
2022-08-26T15:29:04.801Z,101076.66
2022-08-26T15:31:26.493Z,101080.59
2022-08-26T15:33:46.882Z,101078.66
2022-08-26T15:36:09.014Z,101070.25
2022-08-26T15:38:30.093Z,101069.81
2022-08-26T15:40:51.847Z,101059.56
2022-08-26T15:43:27.933Z,101066.66
2022-08-26T15:45:49.047Z,101056.88
2022-08-26T15:48:08.950Z,101062.84
2022-08-26T15:50:29.410Z,101055.72
2022-08-26T15:52:49.398Z,101054.34
2022-08-26T15:55:09.612Z,101049.94
2022-08-26T15:57:31.059Z,101054.59
2022-08-26T15:59:50.973Z,101047.22
2022-08-26T16:02:10.970Z,101047.19
2022-08-26T16:04:31.452Z,101042.53
2022-08-26T16:06:51.706Z,101035.50
2022-08-26T16:09:11.727Z,101043.09
2022-08-26T16:11:32.243Z,101037.97
2022-08-26T16:13:54.028Z,101034.19
2022-08-26T16:16:14.220Z,101029.94
2022-08-26T16:18:34.479Z,101030.41
2022-08-26T16:21:01.554Z,101030.25
2022-08-26T16:23:33.589Z,101026.97
2022-08-26T16:25:54.019Z,101037.19
2022-08-26T16:28:14.502Z,101034.44
2022-08-26T16:30:48.255Z,101032.31
2022-08-26T16:33:08.512Z,101032.69
2022-08-26T16:35:30.406Z,101032.25
2022-08-26T16:37:50.764Z,101039.81
2022-08-26T16:40:11.141Z,101043.16
2022-08-26T16:42:31.533Z,101032.16
2022-08-26T16:44:52.104Z,101029.06
2022-08-26T16:47:16.129Z,101031.63
2022-08-26T16:49:36.375Z,101038.72
2022-08-26T16:51:56.764Z,101031.63
2022-08-26T16:54:16.685Z,101022.72
2022-08-26T16:56:36.604Z,101023.84
2022-08-26T16:58:57.141Z,101033.16
2022-08-26T17:01:17.666Z,101027.97
2022-08-26T17:03:39.136Z,101028.06
2022-08-26T17:05:59.663Z,101022.66
2022-08-26T17:08:27.397Z,101016.75
2022-08-26T17:10:48.894Z,101018.88
2022-08-26T17:13:16.024Z,101016.91
2022-08-26T17:15:46.181Z,101015.78
2022-08-26T17:18:06.331Z,101020.31
2022-08-26T17:20:28.272Z,101018.88
2022-08-26T17:22:49.148Z,101011.22
2022-08-26T17:25:10.462Z,101010.34
2022-08-26T17:27:30.626Z,101006.88
2022-08-26T17:29:50.632Z,101005.03
2022-08-26T17:32:11.323Z,101014.06
2022-08-26T17:34:32.451Z,101003.94
2022-08-26T17:36:57.902Z,101006.75
2022-08-26T17:39:18.017Z,101006.00
2022-08-26T17:41:38.465Z,101004.53
2022-08-26T17:43:59.078Z,100994.03
2022-08-26T17:46:19.472Z,101005.50
2022-08-26T17:48:40.407Z,101012.03
2022-08-26T17:51:01.004Z,101006.94
2022-08-26T17:53:22.607Z,101008.47
2022-08-26T17:55:45.214Z,101002.19
2022-08-26T17:58:06.134Z,101009.53
2022-08-26T18:00:27.382Z,100997.34
2022-08-26T18:02:47.436Z,101009.41
2022-08-26T18:05:08.128Z,101014.31
2022-08-26T18:07:28.041Z,101019.84
2022-08-26T18:09:49.804Z,101016.75
2022-08-26T18:12:10.534Z,101013.41
2022-08-26T18:14:31.485Z,101020.28
2022-08-26T18:16:51.752Z,101026.06
2022-08-26T18:19:11.889Z,101020.28
2022-08-26T18:21:32.378Z,101021.56
2022-08-26T18:23:52.753Z,101028.22
2022-08-26T18:26:17.359Z,101026.25
2022-08-26T18:28:37.615Z,101028.88
2022-08-26T18:30:57.715Z,101031.91
2022-08-26T18:33:18.265Z,101035.78
2022-08-26T18:35:38.625Z,101034.03
2022-08-26T18:38:10.856Z,101039.38
2022-08-26T18:40:32.318Z,101037.28
2022-08-26T18:42:54.549Z,101043.25
2022-08-26T18:45:16.247Z,101045.97
2022-08-26T18:47:36.775Z,101038.78
2022-08-26T18:49:56.696Z,101048.81
2022-08-26T18:52:16.716Z,101043.59
2022-08-26T18:54:37.382Z,101044.59
2022-08-26T18:56:57.818Z,101044.25
2022-08-26T18:59:19.764Z,101047.38
2022-08-26T19:01:50.026Z,101048.28
2022-08-26T19:04:11.740Z,101049.47
2022-08-26T19:06:36.471Z,101052.97
2022-08-26T19:08:58.956Z,101051.56
2022-08-26T19:11:32.122Z,101052.41
2022-08-26T19:13:53.231Z,101061.00
2022-08-26T19:16:18.478Z,101059.72
2022-08-26T19:18:38.521Z,101063.03
2022-08-26T19:20:58.357Z,101068.47
2022-08-26T19:23:31.615Z,101068.47
2022-08-26T19:25:52.684Z,101071.72
2022-08-26T19:28:13.787Z,101073.69
2022-08-26T19:30:37.071Z,101084.63
2022-08-26T19:32:58.380Z,101085.09
2022-08-26T19:35:19.475Z,101081.81
2022-08-26T19:37:39.407Z,101088.69
2022-08-26T19:39:59.462Z,101092.94
2022-08-26T19:42:19.702Z,101092.16
2022-08-26T19:44:39.771Z,101088.38
2022-08-26T19:46:59.969Z,101090.41
2022-08-26T19:49:21.858Z,101098.53
2022-08-26T19:51:41.763Z,101096.16
2022-08-26T19:54:02.317Z,101091.75
2022-08-26T19:56:22.835Z,101101.75
2022-08-26T19:58:42.987Z,101101.19
2022-08-26T20:01:03.337Z,101102.09
2022-08-26T20:03:23.441Z,101101.16
2022-08-26T20:05:45.019Z,101101.56
2022-08-26T20:08:05.005Z,101109.94
2022-08-26T20:10:25.529Z,101130.06
2022-08-26T20:12:45.893Z,101123.94
2022-08-26T20:15:06.410Z,101122.22
2022-08-26T20:17:26.889Z,101128.75
2022-08-26T20:19:46.986Z,101130.75
2022-08-26T20:22:08.736Z,101131.16
2022-08-26T20:24:29.652Z,101145.53
2022-08-26T20:26:49.833Z,101153.81
2022-08-26T20:29:10.619Z,101139.31
2022-08-26T20:31:31.260Z,101144.47
2022-08-26T20:33:51.776Z,101141.63
2022-08-26T20:36:12.010Z,101150.25
2022-08-26T20:38:33.691Z,101159.00
2022-08-26T20:40:54.184Z,101161.28
2022-08-26T20:43:16.353Z,101151.88
2022-08-26T20:45:36.885Z,101148.13
2022-08-26T20:47:57.130Z,101153.66
2022-08-26T20:50:17.745Z,101166.75
2022-08-26T20:52:37.850Z,101150.09
2022-08-26T20:54:59.672Z,101153.88
2022-08-26T20:57:20.128Z,101155.63
2022-08-26T20:59:40.133Z,101157.22
2022-08-26T21:02:00.781Z,101164.66
2022-08-26T21:04:21.604Z,101151.63
2022-08-26T21:06:42.339Z,101153.88
2022-08-26T21:09:13.270Z,101159.03
2022-08-26T21:11:37.668Z,101164.34
2022-08-26T21:14:06.750Z,101161.00
2022-08-26T21:16:36.143Z,101161.88
2022-08-26T21:18:56.270Z,101168.41
2022-08-26T21:21:16.741Z,101172.56
2022-08-26T21:23:38.174Z,101165.84
2022-08-26T21:26:01.056Z,101176.69
2022-08-26T21:28:22.907Z,101175.66
2022-08-26T21:30:43.095Z,101183.22
2022-08-26T21:33:02.991Z,101181.63
2022-08-26T21:35:23.296Z,101181.56
2022-08-26T21:37:43.685Z,101180.16
2022-08-26T21:40:04.045Z,101179.66
2022-08-26T21:42:25.517Z,101184.41
2022-08-26T21:44:52.719Z,101180.91
2022-08-26T21:47:13.538Z,101187.38
2022-08-26T21:49:33.595Z,101178.38
2022-08-26T21:51:54.087Z,101177.59
2022-08-26T21:54:14.488Z,101182.66
2022-08-26T21:56:35.841Z,101186.41
2022-08-26T21:58:56.237Z,101184.66
2022-08-26T22:01:19.351Z,101182.56
2022-08-26T22:03:46.605Z,101177.06
2022-08-26T22:06:07.804Z,101184.47
2022-08-26T22:08:28.057Z,101186.75
2022-08-26T22:10:48.593Z,101180.09
2022-08-26T22:13:08.976Z,101183.53
2022-08-26T22:15:28.991Z,101180.41
2022-08-26T22:17:50.768Z,101193.13
2022-08-26T22:20:11.522Z,101193.00
2022-08-26T22:22:37.348Z,101195.53
2022-08-26T22:24:57.695Z,101193.94
2022-08-26T22:27:18.234Z,101195.41
2022-08-26T22:29:38.766Z,101204.69
2022-08-26T22:31:59.298Z,101201.84
2022-08-26T22:34:20.901Z,101207.38
2022-08-26T22:36:43.842Z,101196.50
2022-08-26T22:39:04.923Z,101200.97
2022-08-26T22:41:25.547Z,101204.78
2022-08-26T22:43:46.475Z,101204.38
2022-08-26T22:46:06.948Z,101211.00
2022-08-26T22:48:27.304Z,101208.34
2022-08-26T22:50:49.202Z,101213.09
2022-08-26T22:53:09.071Z,101210.31
2022-08-26T22:55:29.568Z,101214.78
2022-08-26T22:57:50.068Z,101203.88
2022-08-26T23:00:11.322Z,101197.88
2022-08-26T23:02:31.554Z,101189.75
2022-08-26T23:04:51.817Z,101195.75
2022-08-26T23:07:14.911Z,101196.84
2022-08-26T23:09:35.237Z,101197.19
2022-08-26T23:11:55.339Z,101192.59
2022-08-26T23:14:15.839Z,101189.25
2022-08-26T23:16:39.311Z,101183.72
2022-08-26T23:18:59.840Z,101182.63
2022-08-26T23:21:20.232Z,101182.13
2022-08-26T23:23:42.080Z,101180.78
2022-08-26T23:26:05.931Z,101183.53
2022-08-26T23:28:26.237Z,101183.72
2022-08-26T23:30:46.838Z,101177.53
2022-08-26T23:33:07.028Z,101180.91
2022-08-26T23:35:27.382Z,101180.06
2022-08-26T23:37:48.498Z,101183.78
2022-08-26T23:40:12.032Z,101180.00
2022-08-26T23:42:32.404Z,101179.13
2022-08-26T23:44:52.348Z,101183.84
2022-08-26T23:47:12.947Z,101178.81
2022-08-26T23:49:33.447Z,101178.97
2022-08-26T23:51:53.667Z,101181.69
2022-08-26T23:54:13.687Z,101181.97
2022-08-26T23:56:35.378Z,101175.81
2022-08-26T23:58:55.798Z,101176.66
